Time;durP1;ratioP1;P1;durP2;ratioP2;P2;SDS_P1;SDS_P2;PMS_P1;PMS_P2;Temp;Humidity;BMP_temperature;BMP_pressure;BME280_temperature;BME280_humidity;BME280_pressure;Samples;Min_cycle;Max_cycle;Signal;HPM_P1;HPM_P2
2023/07/23 00:02:04;;;;;;;9.90;5.32;;;;;;;17.86;100.00;100781.06;5116116;28;20049;-64
2023/07/23 00:04:32;;;;;;;9.68;5.05;;;;;;;17.85;100.00;100776.69;5113993;28;20047;-63
2023/07/23 00:07:00;;;;;;;9.15;4.97;;;;;;;17.83;100.00;100770.66;5100482;28;20040;-64
2023/07/23 00:09:27;;;;;;;14.52;5.82;;;;;;;17.82;100.00;100768.22;5111549;28;20398;-65
2023/07/23 00:11:55;;;;;;;11.57;5.10;;;;;;;17.82;100.00;100768.22;5116844;27;20047;-64
2023/07/23 00:14:23;;;;;;;9.20;4.72;;;;;;;17.84;100.00;100760.44;5105557;28;20054;-64
2023/07/23 00:16:51;;;;;;;9.85;4.85;;;;;;;17.85;100.00;100754.63;5114706;28;20397;-64
2023/07/23 00:19:19;;;;;;;10.65;5.78;;;;;;;17.85;100.00;100757.38;5115489;28;20036;-63
2023/07/23 00:21:48;;;;;;;10.50;5.68;;;;;;;17.84;100.00;100750.22;5109777;28;20092;-66
2023/07/23 00:24:17;;;;;;;10.73;5.72;;;;;;;17.82;100.00;100744.25;5099005;28;20043;-64
2023/07/23 00:26:45;;;;;;;11.98;5.43;;;;;;;17.82;100.00;100748.94;5110809;28;20047;-63
2023/07/23 00:29:13;;;;;;;10.82;6.10;;;;;;;17.78;100.00;100740.47;5080058;28;20047;-64
2023/07/23 00:31:41;;;;;;;11.90;5.13;;;;;;;17.77;100.00;100738.81;5096707;28;20121;-64
2023/07/23 00:34:09;;;;;;;11.30;5.60;;;;;;;17.75;100.00;100730.09;5113624;28;20464;-62
2023/07/23 00:36:37;;;;;;;10.90;5.68;;;;;;;17.74;100.00;100722.13;5096652;28;20085;-64
2023/07/23 00:39:05;;;;;;;11.43;4.93;;;;;;;17.74;100.00;100724.88;5079893;28;20061;-64
2023/07/23 00:41:33;;;;;;;11.50;5.47;;;;;;;17.72;100.00;100725.19;5115360;28;20510;-62
2023/07/23 00:44:02;;;;;;;11.25;4.88;;;;;;;17.74;100.00;100711.91;5110401;28;20035;-65
2023/07/23 00:46:31;;;;;;;10.73;5.47;;;;;;;17.74;100.00;100711.91;5114832;28;20052;-63
2023/07/23 00:49:01;;;;;;;9.52;4.82;;;;;;;17.74;100.00;100706.41;5104979;28;20052;-64
2023/07/23 00:51:30;;;;;;;10.68;4.75;;;;;;;17.75;100.00;100702.53;5113315;28;20047;-63
2023/07/23 00:53:58;;;;;;;11.52;4.78;;;;;;;17.73;100.00;100699.28;5074632;28;20129;-64
2023/07/23 00:56:26;;;;;;;10.45;5.30;;;;;;;17.72;100.00;100696.81;5095256;28;20484;-64
2023/07/23 00:58:54;;;;;;;9.27;4.68;;;;;;;17.71;100.00;100695.22;5112552;28;20122;-63
2023/07/23 01:01:22;;;;;;;7.18;3.95;;;;;;;17.72;100.00;100689.38;5123238;28;20169;-63
2023/07/23 01:03:53;;;;;;;13.35;5.38;;;;;;;17.73;99.73;100688.25;5137500;27;20119;-63
2023/07/23 01:06:21;;;;;;;9.30;4.60;;;;;;;17.72;99.49;100683.84;5079892;28;20039;-65
2023/07/23 01:08:49;;;;;;;9.20;4.30;;;;;;;17.71;99.63;100679.50;5111849;28;20114;-62
2023/07/23 01:11:17;;;;;;;8.18;4.60;;;;;;;17.71;99.52;100670.41;5123237;28;20040;-62
2023/07/23 01:13:45;;;;;;;8.77;4.97;;;;;;;17.71;99.31;100673.97;5121180;28;20099;-62
2023/07/23 01:16:13;;;;;;;8.82;4.72;;;;;;;17.71;99.49;100665.72;5116999;28;20107;-63
2023/07/23 01:18:42;;;;;;;8.23;4.50;;;;;;;17.71;99.55;100657.44;5114256;28;20040;-63
2023/07/23 01:21:10;;;;;;;13.57;4.93;;;;;;;17.70;99.60;100655.81;5113173;28;20040;-62
2023/07/23 01:23:38;;;;;;;7.97;4.22;;;;;;;17.69;99.57;100651.44;5112984;28;20055;-65
2023/07/23 01:26:09;;;;;;;9.95;4.95;;;;;;;17.68;99.59;100650.63;5113530;28;20483;-62
2023/07/23 01:28:37;;;;;;;8.55;5.05;;;;;;;17.67;99.92;100640.72;5114795;28;20118;-64
2023/07/23 01:31:05;;;;;;;11.32;5.40;;;;;;;17.68;99.53;100638.81;5097230;28;20072;-63
2023/07/23 01:33:33;;;;;;;8.65;4.75;;;;;;;17.68;99.59;100636.03;5104754;28;20078;-64
2023/07/23 01:36:02;;;;;;;12.43;5.05;;;;;;;17.67;99.72;100634.41;5101821;28;20402;-63
2023/07/23 01:38:30;;;;;;;8.82;5.03;;;;;;;17.66;99.87;100628.09;5097185;28;20050;-63
2023/07/23 01:40:58;;;;;;;8.30;4.47;;;;;;;17.65;99.57;100622.88;5113182;28;20066;-64
2023/07/23 01:43:26;;;;;;;10.77;5.45;;;;;;;17.66;99.12;100621.78;5113402;28;20051;-64
2023/07/23 01:45:54;;;;;;;10.23;5.07;;;;;;;17.66;98.98;100619.81;5112959;28;20410;-62
2023/07/23 01:48:22;;;;;;;10.77;4.80;;;;;;;17.67;98.59;100612.38;5112325;28;20515;-61
2023/07/23 01:50:50;;;;;;;11.18;5.68;;;;;;;17.65;98.54;100614.63;5095172;28;20047;-65
2023/07/23 01:53:18;;;;;;;9.63;4.97;;;;;;;17.63;99.00;100611.38;5104056;28;20044;-62
2023/07/23 01:55:46;;;;;;;9.32;4.95;;;;;;;17.61;99.53;100608.16;5110624;28;20044;-64
2023/07/23 01:58:14;;;;;;;11.75;4.85;;;;;;;17.62;99.13;100599.53;5094891;28;20395;-63
2023/07/23 02:00:42;;;;;;;9.93;5.20;;;;;;;17.62;98.58;100599.53;5091502;28;20050;-64
2023/07/23 02:03:10;;;;;;;10.13;5.18;;;;;;;17.60;98.51;100590.78;5111185;28;20080;-64
2023/07/23 02:05:38;;;;;;;12.27;5.70;;;;;;;17.56;99.11;100597.28;5091538;28;20070;-63
2023/07/23 02:08:06;;;;;;;11.80;5.80;;;;;;;17.56;99.35;100583.50;5064574;28;20047;-62
2023/07/23 02:10:34;;;;;;;9.13;4.75;;;;;;;17.56;99.34;100587.06;5113300;28;20376;-63
2023/07/23 02:13:02;;;;;;;9.32;4.85;;;;;;;17.57;99.04;100585.13;5079177;28;20076;-64
2023/07/23 02:15:30;;;;;;;10.95;5.30;;;;;;;17.56;98.94;100578.81;5113984;28;20096;-64
2023/07/23 02:17:58;;;;;;;9.63;5.05;;;;;;;17.56;98.97;100575.25;5112578;28;20070;-65
2023/07/23 02:20:25;;;;;;;11.15;5.28;;;;;;;17.54;99.23;100564.53;5112018;28;20367;-63
2023/07/23 02:22:53;;;;;;;17.80;5.65;;;;;;;17.53;99.39;100562.91;5079049;28;20058;-63
2023/07/23 02:25:21;;;;;;;11.27;6.05;;;;;;;17.52;99.71;100566.00;5093567;28;20044;-63
2023/07/23 02:27:49;;;;;;;12.65;5.72;;;;;;;17.49;100.00;100561.94;5076883;28;20048;-64
2023/07/23 02:30:18;;;;;;;10.18;5.78;;;;;;;17.46;100.00;100557.88;5094909;28;20043;-64
2023/07/23 02:32:46;;;;;;;13.50;5.40;;;;;;;17.46;100.00;100557.88;5112865;28;20040;-66
2023/07/23 02:35:13;;;;;;;9.38;5.80;;;;;;;17.45;100.00;100553.50;5074568;28;20048;-64
2023/07/23 02:37:42;;;;;;;11.75;5.72;;;;;;;17.43;100.00;100547.50;5041787;28;20046;-64
2023/07/23 02:40:10;;;;;;;9.85;5.70;;;;;;;17.44;100.00;100532.59;5093948;28;20229;-64
2023/07/23 02:42:38;;;;;;;9.40;5.30;;;;;;;17.44;100.00;100537.31;5094816;28;20074;-63
2023/07/23 02:45:06;;;;;;;11.15;6.10;;;;;;;17.44;100.00;100534.56;5088648;28;20048;-64
2023/07/23 02:47:34;;;;;;;11.88;5.93;;;;;;;17.42;100.00;100537.63;5079135;28;20044;-65
2023/07/23 02:50:03;;;;;;;12.48;6.05;;;;;;;17.42;100.00;100534.84;5095274;28;20081;-65
2023/07/23 02:52:31;;;;;;;10.18;5.45;;;;;;;17.40;100.00;100536.31;5070148;28;20491;-64
2023/07/23 02:54:58;;;;;;;10.15;5.95;;;;;;;17.40;100.00;100533.56;5078589;28;20048;-65
2023/07/23 02:57:26;;;;;;;11.20;5.97;;;;;;;17.36;100.00;100529.81;5077432;28;20105;-65
2023/07/23 02:59:54;;;;;;;13.07;6.28;;;;;;;17.33;100.00;100528.53;5095349;28;20054;-63
2023/07/23 03:02:22;;;;;;;11.63;5.97;;;;;;;17.31;100.00;100528.03;5062224;28;20499;-64
2023/07/23 03:04:50;;;;;;;10.57;6.38;;;;;;;17.29;100.00;100524.78;5061713;28;20042;-64
2023/07/23 03:07:18;;;;;;;10.18;5.93;;;;;;;17.27;100.00;100516.06;5078240;28;20044;-64
2023/07/23 03:09:46;;;;;;;12.45;6.05;;;;;;;17.23;100.00;100513.09;5096175;28;20048;-63
2023/07/23 03:12:14;;;;;;;12.13;6.13;;;;;;;17.26;100.00;100514.41;5095567;28;20385;-66
2023/07/23 03:14:42;;;;;;;12.13;6.47;;;;;;;17.26;100.00;100511.66;5061574;28;20036;-64
2023/07/23 03:17:10;;;;;;;13.65;6.60;;;;;;;17.25;100.00;100515.56;5074912;28;20067;-64
2023/07/23 03:19:38;;;;;;;10.82;6.07;;;;;;;17.27;100.00;100517.97;5076343;28;20095;-64
2023/07/23 03:22:06;;;;;;;11.13;6.38;;;;;;;17.28;100.00;100511.34;5076080;28;20058;-64
2023/07/23 03:24:34;;;;;;;10.40;6.03;;;;;;;17.30;100.00;100509.91;5093723;28;20066;-63
2023/07/23 03:27:02;;;;;;;10.75;5.95;;;;;;;17.30;100.00;100515.41;5094788;28;20048;-62
2023/07/23 03:29:30;;;;;;;11.35;6.15;;;;;;;17.30;99.85;100503.59;5060566;28;20380;-63
2023/07/23 03:31:58;;;;;;;11.57;5.35;;;;;;;17.27;99.58;100509.72;5079206;28;20396;-64
2023/07/23 03:34:27;;;;;;;13.25;6.28;;;;;;;17.28;98.98;100495.63;5071542;28;20488;-63
2023/07/23 03:36:55;;;;;;;10.73;5.82;;;;;;;17.27;99.08;100502.28;5096196;28;20373;-63
2023/07/23 03:39:23;;;;;;;7.85;4.72;;;;;;;17.29;98.88;100505.50;5095958;28;20060;-62
2023/07/23 03:41:51;;;;;;;12.80;5.90;;;;;;;17.33;97.69;100503.75;5096008;28;20052;-64
2023/07/23 03:44:19;;;;;;;8.48;4.88;;;;;;;17.37;97.63;100501.97;5096280;28;20395;-63
2023/07/23 03:47:22;;;;;;;7.90;4.50;;;;;;;17.38;97.24;100500.81;5071915;28;20048;-62
2023/07/23 03:49:50;;;;;;;11.13;4.85;;;;;;;17.42;97.07;100501.81;4974123;28;20473;-63
2023/07/23 03:52:18;;;;;;;10.82;4.88;;;;;;;17.45;96.78;100494.84;5065139;28;20099;-64
2023/07/23 03:54:46;;;;;;;9.15;4.57;;;;;;;17.46;96.59;100496.44;5097169;28;20039;-65
2023/07/23 03:57:14;;;;;;;6.35;3.97;;;;;;;17.49;96.40;100486.75;5079807;28;20063;-66
2023/07/23 03:59:44;;;;;;;9.80;4.28;;;;;;;17.55;95.70;100493.72;5077901;28;20040;-64
2023/07/23 04:02:13;;;;;;;8.82;4.63;;;;;;;17.54;95.41;100495.66;5073128;28;20063;-63
2023/07/23 04:04:41;;;;;;;7.25;4.07;;;;;;;17.64;95.37;100491.78;5049924;28;20050;-64
2023/07/23 04:07:09;;;;;;;9.32;4.55;;;;;;;17.59;94.86;100494.69;5056833;28;20102;-63
2023/07/23 04:09:37;;;;;;;7.03;3.72;;;;;;;17.61;95.11;100492.44;5048522;28;20040;-62
2023/07/23 04:12:08;;;;;;;10.05;4.30;;;;;;;17.63;94.29;100501.16;5081770;28;20468;-62
2023/07/23 04:14:42;;;;;;;8.15;4.28;;;;;;;17.63;93.79;100495.66;5029832;28;20439;-64
2023/07/23 04:17:10;;;;;;;6.25;3.90;;;;;;;17.61;93.45;100495.19;5071369;28;20044;-62
2023/07/23 04:19:40;;;;;;;9.80;3.75;;;;;;;17.59;93.49;100500.22;5058343;28;20503;-63
2023/07/23 04:22:08;;;;;;;6.38;3.72;;;;;;;17.57;93.68;100496.97;5085271;28;20491;-63
2023/07/23 04:24:35;;;;;;;8.88;4.20;;;;;;;17.57;93.59;100503.28;5074789;28;20048;-65
2023/07/23 04:27:04;;;;;;;11.25;4.13;;;;;;;17.63;93.19;100499.25;5058987;28;20032;-64
2023/07/23 04:29:31;;;;;;;6.78;3.97;;;;;;;17.68;93.21;100501.03;5058984;28;20480;-64
2023/07/23 04:31:59;;;;;;;7.40;4.18;;;;;;;17.64;92.09;100502.81;5071953;28;20377;-64
2023/07/23 04:34:27;;;;;;;8.40;4.03;;;;;;;17.68;93.33;100498.28;5101735;28;20055;-62
2023/07/23 04:36:55;;;;;;;7.90;4.30;;;;;;;17.67;92.52;100502.16;5110505;28;20476;-63
2023/07/23 04:39:23;;;;;;;11.13;4.68;;;;;;;17.60;91.73;100507.31;5114016;28;20044;-64
2023/07/23 04:41:52;;;;;;;8.00;4.00;;;;;;;17.63;91.70;100512.19;5114125;28;20062;-65
2023/07/23 04:44:20;;;;;;;6.93;4.10;;;;;;;17.60;91.44;100501.81;5113585;28;20044;-65
2023/07/23 04:46:48;;;;;;;7.60;4.25;;;;;;;17.66;91.51;100503.28;5107346;28;20092;-66
2023/07/23 04:49:16;;;;;;;7.03;3.70;;;;;;;17.64;91.17;100500.84;5096173;28;20048;-64
2023/07/23 04:51:44;;;;;;;11.07;4.32;;;;;;;17.62;91.09;100499.56;5077267;28;20059;-65
2023/07/23 04:54:11;;;;;;;8.38;4.10;;;;;;;17.75;91.75;100498.59;5114657;28;20050;-64
2023/07/23 04:56:39;;;;;;;9.10;3.85;;;;;;;17.73;91.21;100498.13;5074721;28;20048;-63
2023/07/23 04:59:07;;;;;;;9.77;3.95;;;;;;;17.72;90.59;100503.94;5111666;28;20096;-62
2023/07/23 05:01:35;;;;;;;6.68;3.92;;;;;;;17.66;90.25;100501.34;5089432;28;20043;-62
2023/07/23 05:04:03;;;;;;;6.30;3.97;;;;;;;17.66;90.49;100495.03;5102752;28;20043;-65
2023/07/23 05:06:31;;;;;;;10.20;3.92;;;;;;;17.65;90.42;100496.97;5111350;28;20053;-68
2023/07/23 05:08:59;;;;;;;8.35;4.20;;;;;;;17.68;90.45;100493.56;5088303;28;20046;-67
2023/07/23 05:11:27;;;;;;;7.78;4.20;;;;;;;17.67;90.21;100493.88;5097471;28;20074;-64
2023/07/23 05:13:55;;;;;;;10.18;4.13;;;;;;;17.66;90.36;100489.53;5096252;28;20044;-66
2023/07/23 05:16:23;;;;;;;7.63;3.97;;;;;;;17.70;90.91;100486.91;5113835;28;20050;-65
2023/07/23 05:18:51;;;;;;;8.80;3.88;;;;;;;17.75;90.24;100495.84;5090138;28;20047;-67
2023/07/23 05:21:19;;;;;;;7.13;3.72;;;;;;;17.77;90.39;100488.03;5109931;28;20077;-64
2023/07/23 05:23:46;;;;;;;9.23;4.10;;;;;;;17.78;89.73;100489.69;5114305;28;20054;-65
2023/07/23 05:26:14;;;;;;;7.32;3.97;;;;;;;17.78;89.80;100497.13;5090139;28;20044;-68
2023/07/23 05:28:42;;;;;;;8.88;4.15;;;;;;;17.82;89.67;100493.44;5116062;28;20031;-67
2023/07/23 05:31:10;;;;;;;10.55;4.28;;;;;;;17.78;89.80;100495.19;5098129;28;20131;-65
2023/07/23 05:33:38;;;;;;;7.38;3.70;;;;;;;17.76;89.93;100499.41;5127398;28;20112;-65
2023/07/23 05:36:06;;;;;;;8.63;4.18;;;;;;;17.81;89.62;100491.81;5113213;28;20433;-64
2023/07/23 05:38:34;;;;;;;8.52;4.00;;;;;;;17.80;89.86;100495.72;5098389;28;20043;-67
2023/07/23 05:41:01;;;;;;;8.68;4.82;;;;;;;17.78;90.16;100489.69;5126319;28;20095;-64
2023/07/23 05:43:29;;;;;;;10.68;3.85;;;;;;;17.75;90.43;100493.09;5107784;28;20123;-64
2023/07/23 05:46:00;;;;;;;7.35;3.88;;;;;;;17.81;90.31;100491.81;5075302;28;20115;-63
2023/07/23 05:48:28;;;;;;;6.38;3.50;;;;;;;17.86;90.32;100494.41;5076622;28;20392;-65
2023/07/23 05:50:55;;;;;;;8.68;3.60;;;;;;;17.80;90.24;100495.72;5100625;28;20040;-65
2023/07/23 05:53:23;;;;;;;7.63;3.90;;;;;;;17.82;90.33;100493.44;5096645;28;20053;-63
2023/07/23 05:55:51;;;;;;;6.13;4.03;;;;;;;17.83;90.49;100495.06;5115004;28;20039;-64
2023/07/23 05:58:19;;;;;;;8.95;4.07;;;;;;;17.88;89.84;100492.13;5114073;28;20044;-64
2023/07/23 06:00:47;;;;;;;8.05;3.83;;;;;;;17.92;90.09;100488.72;5111145;28;20054;-65
2023/07/23 06:03:15;;;;;;;5.47;3.40;;;;;;;17.96;89.66;100489.69;5112893;28;20047;-65
2023/07/23 06:05:43;;;;;;;9.55;3.88;;;;;;;17.84;90.16;100491.16;5108150;28;20058;-65
2023/07/23 06:08:11;;;;;;;6.53;3.70;;;;;;;17.84;90.27;100496.66;5091168;28;20048;-64
2023/07/23 06:10:39;;;;;;;7.82;3.90;;;;;;;17.84;90.07;100482.88;5082903;28;20051;-64
2023/07/23 06:13:06;;;;;;;5.32;3.22;;;;;;;17.78;90.56;100486.91;5110430;28;20052;-64
2023/07/23 06:15:35;;;;;;;7.20;3.63;;;;;;;17.88;90.41;100483.84;5114893;28;20044;-64
2023/07/23 06:18:03;;;;;;;6.05;3.70;;;;;;;17.94;89.90;100487.25;5084129;28;20036;-66
2023/07/23 06:20:30;;;;;;;7.93;3.70;;;;;;;17.98;89.53;100488.22;5113564;28;20044;-65
2023/07/23 06:23:00;;;;;;;5.63;3.55;;;;;;;18.06;89.54;100487.41;5109999;28;20224;-66
2023/07/23 06:25:28;;;;;;;6.72;4.00;;;;;;;18.05;89.21;100485.78;5116407;28;20047;-67
2023/07/23 06:27:56;;;;;;;6.03;3.60;;;;;;;18.07;89.27;100493.75;5079660;28;20055;-65
2023/07/23 06:30:24;;;;;;;7.57;3.78;;;;;;;18.01;89.70;100489.53;5093986;28;20398;-66
2023/07/23 06:32:51;;;;;;;5.68;3.83;;;;;;;18.12;89.61;100490.00;5114072;28;20056;-65
2023/07/23 06:35:19;;;;;;;7.00;3.50;;;;;;;18.02;90.24;100496.66;5097882;28;20173;-64
2023/07/23 06:37:47;;;;;;;7.47;3.25;;;;;;;18.01;90.56;100495.03;5112661;28;20040;-65
2023/07/23 06:40:15;;;;;;;5.45;3.45;;;;;;;18.09;90.26;100499.75;5110853;28;20073;-65
2023/07/23 06:42:43;;;;;;;6.55;3.47;;;;;;;17.91;91.09;100506.41;5091634;28;20035;-65
2023/07/23 06:45:11;;;;;;;7.38;3.78;;;;;;;17.99;91.35;100511.09;5098029;28;20056;-65
2023/07/23 06:47:39;;;;;;;6.07;3.47;;;;;;;17.83;92.01;100510.78;5080808;28;20540;-66
2023/07/23 06:50:07;;;;;;;7.38;3.63;;;;;;;17.77;93.33;100512.03;5108635;28;20046;-65
2023/07/23 06:52:35;;;;;;;7.75;3.83;;;;;;;17.82;92.86;100511.91;5115559;28;20039;-66
2023/07/23 06:55:03;;;;;;;9.68;3.95;;;;;;;17.86;92.02;100515.63;5113784;28;20052;-67
2023/07/23 06:57:31;;;;;;;6.40;3.35;;;;;;;17.91;91.89;100522.94;5112370;28;20044;-67
2023/07/23 06:59:58;;;;;;;5.97;3.53;;;;;;;17.78;93.23;100522.75;5098798;28;20055;-66
2023/07/23 07:02:26;;;;;;;11.25;4.63;;;;;;;17.81;92.84;100508.34;5093161;28;20040;-66
2023/07/23 07:04:54;;;;;;;6.63;3.70;;;;;;;17.84;92.29;100521.47;5096674;28;20484;-65
2023/07/23 07:07:22;;;;;;;8.27;3.67;;;;;;;18.04;92.22;100520.00;5106944;28;20048;-67
2023/07/23 07:09:52;;;;;;;6.90;4.00;;;;;;;18.09;91.44;100519.03;5101560;28;20040;-66
2023/07/23 07:12:19;;;;;;;5.80;3.90;;;;;;;17.85;93.27;100523.09;5103369;28;20059;-67
2023/07/23 07:14:47;;;;;;;7.50;3.58;;;;;;;17.76;93.31;100529.72;5111627;28;20051;-67
2023/07/23 07:17:15;;;;;;;7.97;3.42;;;;;;;17.79;94.39;100527.13;5116622;28;20047;-65
2023/07/23 07:19:43;;;;;;;10.75;4.30;;;;;;;17.91;93.74;100523.75;5097307;28;20135;-66
2023/07/23 07:22:11;;;;;;;10.10;4.20;;;;;;;17.75;94.59;100528.91;5113224;28;20355;-69
2023/07/23 07:24:38;;;;;;;12.15;4.38;;;;;;;17.73;95.64;100517.41;5105474;28;20053;-67
2023/07/23 07:27:09;;;;;;;9.73;4.88;;;;;;;17.37;100.00;100526.75;5111839;28;20043;-67
2023/07/23 07:29:41;;;;;;;9.02;4.40;;;;;;;17.17;100.00;100527.34;5117324;28;20040;-66
2023/07/23 07:32:09;;;;;;;7.97;4.60;;;;;;;17.04;100.00;100523.59;5116280;28;20115;-66
2023/07/23 07:34:37;;;;;;;10.70;5.05;;;;;;;17.01;100.00;100519.53;5115885;28;20062;-65
2023/07/23 07:37:05;;;;;;;17.10;6.25;;;;;;;17.06;100.00;100521.34;5098770;28;20051;-66
2023/07/23 07:39:33;;;;;;;15.95;5.53;;;;;;;17.07;100.00;100519.38;5115094;28;20058;-66
2023/07/23 07:42:00;;;;;;;23.92;8.07;;;;;;;17.11;100.00;100528.63;5116071;28;20047;-66
2023/07/23 07:44:29;;;;;;;24.00;8.38;;;;;;;17.11;100.00;100523.13;5114886;28;20048;-66
2023/07/23 07:47:00;;;;;;;23.40;9.15;;;;;;;17.20;100.00;100532.22;5115368;28;20050;-66
2023/07/23 07:49:28;;;;;;;13.40;6.00;;;;;;;17.19;100.00;100527.84;5116548;28;20052;-66
2023/07/23 07:51:56;;;;;;;13.02;5.47;;;;;;;17.15;100.00;100518.59;5116483;28;20044;-64
2023/07/23 07:54:23;;;;;;;11.77;5.40;;;;;;;17.17;100.00;100521.84;5116450;28;20452;-65
2023/07/23 07:56:52;;;;;;;16.23;5.78;;;;;;;17.20;100.00;100521.22;5116064;28;20376;-65
2023/07/23 07:59:20;;;;;;;11.23;5.43;;;;;;;17.21;100.00;100528.34;5116366;28;20094;-64
2023/07/23 08:01:48;;;;;;;13.05;4.85;;;;;;;17.21;100.00;100517.31;5097684;28;20055;-65
2023/07/23 08:04:16;;;;;;;14.07;5.80;;;;;;;17.27;100.00;100523.47;5114467;28;20054;-65
2023/07/23 08:06:44;;;;;;;11.50;5.50;;;;;;;17.29;100.00;100513.75;5115758;28;20040;-66
2023/07/23 08:09:13;;;;;;;11.43;5.60;;;;;;;17.33;100.00;100528.53;5114279;28;20425;-66
2023/07/23 08:11:40;;;;;;;13.00;5.40;;;;;;;17.39;100.00;100519.00;5115680;28;20047;-66
2023/07/23 08:14:09;;;;;;;18.85;6.68;;;;;;;17.46;100.00;100513.81;5081193;28;20449;-66
2023/07/23 08:16:37;;;;;;;16.67;6.38;;;;;;;17.53;100.00;100512.50;5115778;28;20455;-66
2023/07/23 08:19:05;;;;;;;12.93;5.50;;;;;;;17.52;100.00;100522.72;5113923;28;20491;-67
2023/07/23 08:21:33;;;;;;;7.70;4.78;;;;;;;17.47;100.00;100514.63;5097374;28;20056;-65
2023/07/23 08:24:02;;;;;;;8.30;4.85;;;;;;;17.43;100.00;100519.94;5115077;28;20048;-66
2023/07/23 08:26:30;;;;;;;8.25;4.57;;;;;;;17.41;100.00;100525.00;5114070;28;20051;-65
2023/07/23 08:29:03;;;;;;;14.85;6.18;;;;;;;17.43;100.00;100522.69;5114042;28;20044;-66
2023/07/23 08:31:32;;;;;;;14.10;4.97;;;;;;;17.43;100.00;100521.91;5097179;28;20388;-65
2023/07/23 08:34:02;;;;;;;14.15;6.07;;;;;;;17.49;100.00;100522.56;5115013;28;20389;-66
2023/07/23 08:36:31;;;;;;;11.90;4.60;;;;;;;17.48;100.00;100520.94;5113230;28;20043;-66
2023/07/23 08:38:59;;;;;;;9.75;4.38;;;;;;;17.44;100.00;100518.03;5113540;28;20039;-68
2023/07/23 08:41:44;;;;;;;13.77;4.57;;;;;;;17.39;100.00;100519.00;5115306;28;20047;-67
2023/07/23 08:44:36;;;;;;;9.25;4.93;;;;;;;17.39;100.00;100519.00;5097541;28;20047;-66
2023/07/23 08:47:11;;;;;;;9.80;4.57;;;;;;;17.39;100.00;100513.47;5096944;28;20052;-66
2023/07/23 08:49:43;;;;;;;7.85;4.20;;;;;;;17.39;100.00;100512.66;5115159;28;20058;-66
2023/07/23 08:52:12;;;;;;;9.70;4.50;;;;;;;17.47;100.00;100520.13;5097360;28;20052;-65
2023/07/23 08:54:41;;;;;;;8.85;4.45;;;;;;;17.52;100.00;100522.72;5114194;28;20054;-65
2023/07/23 08:57:09;;;;;;;7.90;3.95;;;;;;;17.48;100.00;100518.19;5114716;28;20483;-66
2023/07/23 08:59:37;;;;;;;11.77;5.25;;;;;;;17.51;100.00;100514.78;5114748;28;20046;-66
2023/07/23 09:02:09;;;;;;;9.48;4.93;;;;;;;17.51;100.00;100523.03;5097093;28;20081;-66
2023/07/23 09:04:37;;;;;;;8.18;4.20;;;;;;;17.53;100.00;100518.03;5113836;28;20410;-65
2023/07/23 09:07:09;;;;;;;8.82;4.13;;;;;;;17.51;100.00;100525.78;5113634;28;20047;-66
2023/07/23 09:09:37;;;;;;;10.00;4.32;;;;;;;17.46;100.00;100524.84;5114213;28;20051;-66
2023/07/23 09:12:05;;;;;;;9.27;3.80;;;;;;;17.53;100.00;100513.31;5114238;28;20051;-66
2023/07/23 09:14:42;;;;;;;7.68;3.92;;;;;;;17.49;100.00;100522.56;5113524;28;20058;-66
2023/07/23 09:17:20;;;;;;;7.40;3.40;;;;;;;17.45;100.00;100522.38;5113547;28;20043;-66
2023/07/23 09:19:48;;;;;;;8.98;3.75;;;;;;;17.49;100.00;100522.56;5097084;28;20055;-68
2023/07/23 09:22:18;;;;;;;6.25;3.38;;;;;;;17.46;100.00;100527.59;5113624;28;20051;-65
2023/07/23 09:24:46;;;;;;;7.10;3.78;;;;;;;17.45;100.00;100527.91;5115176;28;20043;-66
2023/07/23 09:27:16;;;;;;;8.18;4.03;;;;;;;17.48;100.00;100523.69;5096307;28;20055;-64
2023/07/23 09:29:45;;;;;;;6.78;3.53;;;;;;;17.49;100.00;100522.56;5114353;28;20047;-66
2023/07/23 09:32:23;;;;;;;6.63;3.30;;;;;;;17.49;100.00;100533.59;5096980;28;20047;-66
2023/07/23 09:34:53;;;;;;;7.55;3.33;;;;;;;17.46;100.00;100530.34;5114156;28;20052;-65
2023/07/23 09:37:21;;;;;;;8.13;3.78;;;;;;;17.47;100.00;100520.13;5114422;28;20092;-66
2023/07/23 09:39:53;;;;;;;6.35;3.40;;;;;;;17.50;100.00;100529.69;5097156;28;20054;-66
2023/07/23 09:42:22;;;;;;;6.28;3.13;;;;;;;17.50;100.00;100535.19;5080092;28;20043;-67
2023/07/23 09:44:51;;;;;;;6.53;3.55;;;;;;;17.47;100.00;100525.63;5115144;28;20049;-65
2023/07/23 09:47:25;;;;;;;5.32;3.03;;;;;;;17.45;100.00;100531.47;5096069;28;20051;-66
2023/07/23 09:49:54;;;;;;;7.70;3.47;;;;;;;17.48;100.00;100531.94;5097015;28;20518;-66
2023/07/23 09:52:23;;;;;;;3.88;2.85;;;;;;;17.45;100.00;100538.91;5115044;28;20123;-64
2023/07/23 09:54:53;;;;;;;3.47;2.47;;;;;;;17.44;100.00;100535.34;5115494;28;20044;-66
2023/07/23 09:57:22;;;;;;;4.60;2.83;;;;;;;17.44;100.00;100537.31;5120120;28;20115;-64
2023/07/23 09:59:51;;;;;;;5.13;2.90;;;;;;;17.45;100.00;100530.66;5126945;28;20099;-65
2023/07/23 10:02:20;;;;;;;5.97;3.22;;;;;;;17.44;100.00;100532.59;5124593;28;20110;-64
2023/07/23 10:04:48;;;;;;;6.00;3.28;;;;;;;17.46;100.00;100533.09;5080951;28;20044;-65
2023/07/23 10:07:16;;;;;;;4.00;2.80;;;;;;;17.45;100.00;100528.69;5120744;28;20119;-66
2023/07/23 10:09:44;;;;;;;4.25;2.78;;;;;;;17.45;100.00;100533.41;5093233;28;20091;-64
2023/07/23 10:12:12;;;;;;;4.25;2.88;;;;;;;17.43;100.00;100539.22;5127452;28;20485;-65
2023/07/23 10:14:40;;;;;;;5.03;3.10;;;;;;;17.42;100.00;100542.31;5115573;28;20134;-65
2023/07/23 10:17:08;;;;;;;6.35;3.10;;;;;;;17.42;100.00;100539.56;5096703;28;20406;-65
2023/07/23 10:19:36;;;;;;;6.82;3.40;;;;;;;17.42;100.00;100534.84;5113140;28;20051;-66
2023/07/23 10:22:04;;;;;;;4.57;2.88;;;;;;;17.39;100.00;100542.94;5112823;28;20502;-66
2023/07/23 10:24:39;;;;;;;6.90;3.65;;;;;;;17.38;100.00;100549.59;5079417;28;20487;-66
2023/07/23 10:27:12;;;;;;;7.05;3.60;;;;;;;17.36;100.00;100547.16;5112451;28;20410;-66
2023/07/23 10:29:40;;;;;;;5.28;2.92;;;;;;;17.36;100.00;100551.84;5112931;28;20039;-66
2023/07/23 10:32:26;;;;;;;4.65;2.55;;;;;;;17.33;100.00;100550.56;5114090;28;20152;-66
2023/07/23 10:34:55;;;;;;;6.90;3.03;;;;;;;17.32;100.00;100546.19;5112360;28;20062;-66
2023/07/23 10:37:22;;;;;;;5.00;2.83;;;;;;;17.33;100.00;100550.56;5113551;28;20051;-65
2023/07/23 10:39:53;;;;;;;6.95;3.40;;;;;;;17.34;100.00;100552.19;5113603;28;20048;-67
2023/07/23 10:42:36;;;;;;;4.00;3.03;;;;;;;17.36;100.00;100547.16;5096005;28;20531;-67
2023/07/23 10:45:22;;;;;;;7.10;3.13;;;;;;;17.37;100.00;100554.28;5113535;28;20048;-66
2023/07/23 10:47:57;;;;;;;4.03;2.67;;;;;;;17.39;100.00;100552.03;5112817;28;20046;-68
2023/07/23 10:50:33;;;;;;;4.97;2.73;;;;;;;17.41;100.00;100548.94;5099567;28;20102;-66
2023/07/23 10:53:03;;;;;;;4.93;2.97;;;;;;;17.36;100.00;100549.91;5098964;28;20054;-66
2023/07/23 10:55:46;;;;;;;4.22;2.60;;;;;;;17.34;100.00;100549.44;4744761;28;10000574;-67
2023/07/23 10:58:15;;;;;;;6.82;2.95;;;;;;;17.36;100.00;100547.16;5082917;28;20074;-67
2023/07/23 11:00:54;;;;;;;3.60;2.70;;;;;;;17.40;100.00;100550.09;5092569;28;20055;-66
2023/07/23 11:03:25;;;;;;;3.83;2.72;;;;;;;17.40;100.00;100542.63;5112643;28;20498;-66
2023/07/23 11:05:53;;;;;;;4.70;2.80;;;;;;;17.41;100.00;100548.94;5113465;28;20064;-67
2023/07/23 11:08:26;;;;;;;6.28;3.35;;;;;;;17.49;100.00;100550.13;5077920;28;20426;-66
2023/07/23 11:10:56;;;;;;;6.35;2.67;;;;;;;17.46;100.00;100551.53;5092636;28;20049;-66
2023/07/23 11:13:32;;;;;;;6.30;3.08;;;;;;;17.48;100.00;100549.28;5095713;28;20048;-66
2023/07/23 11:16:01;;;;;;;4.95;3.00;;;;;;;17.52;100.00;100550.28;5111633;28;20051;-67
2023/07/23 11:18:32;;;;;;;5.75;3.15;;;;;;;17.56;100.00;100553.22;5111528;28;20054;-67
2023/07/23 11:21:04;;;;;;;6.22;3.40;;;;;;;17.61;100.00;100547.53;5112086;28;20043;-67
2023/07/23 11:23:33;;;;;;;5.63;3.08;;;;;;;17.63;100.00;100540.56;5111675;28;20054;-67
2023/07/23 11:26:01;;;;;;;6.20;3.58;;;;;;;17.67;100.00;100546.22;5095813;28;20059;-66